sensor_id;sensor_type;location;lat;lon;timestamp;pressure;altitude;pressure_sealevel;temperature;humidity
50250;BME280;36133;42.522;27.456;2023-05-24T00:01:09;100826.25;;;19.68;56.41
50250;BME280;36133;42.522;27.456;2023-05-24T00:03:38;100872.25;;;20.11;56.08
50250;BME280;36133;42.522;27.456;2023-05-24T00:06:30;100654.19;;;18.16;58.18
50250;BME280;36133;42.522;27.456;2023-05-24T00:08:59;100928.44;;;20.26;57.10
50250;BME280;36133;42.522;27.456;2023-05-24T00:11:25;101030.50;;;21.35;56.57
50250;BME280;36133;42.522;27.456;2023-05-24T00:13:52;101005.94;;;21.28;56.33
50250;BME280;36133;42.522;27.456;2023-05-24T00:16:17;100947.53;;;20.99;56.31
50250;BME280;36133;42.522;27.456;2023-05-24T00:18:43;100805.72;;;20.16;56.23
50250;BME280;36133;42.522;27.456;2023-05-24T00:21:12;101077.63;;;20.98;58.31
50250;BME280;36133;42.522;27.456;2023-05-24T00:23:38;100989.59;;;20.71;57.71
50250;BME280;36133;42.522;27.456;2023-05-24T00:26:04;100762.59;;;19.78;56.52
50250;BME280;36133;42.522;27.456;2023-05-24T00:28:30;100985.28;;;21.43;56.37
50250;BME280;36133;42.522;27.456;2023-05-24T00:30:57;100832.34;;;20.49;56.33
50250;BME280;36133;42.522;27.456;2023-05-24T00:33:22;101063.28;;;21.80;56.76
50250;BME280;36133;42.522;27.456;2023-05-24T00:35:49;101013.97;;;21.69;56.42
50250;BME280;36133;42.522;27.456;2023-05-24T00:38:18;101014.88;;;21.96;55.91
50250;BME280;36133;42.522;27.456;2023-05-24T00:40:44;100938.16;;;21.51;56.04
50250;BME280;36133;42.522;27.456;2023-05-24T00:43:09;100944.78;;;21.55;55.89
50250;BME280;36133;42.522;27.456;2023-05-24T00:45:35;100884.69;;;21.20;55.88
50250;BME280;36133;42.522;27.456;2023-05-24T00:48:00;101050.97;;;22.21;55.86
50250;BME280;36133;42.522;27.456;2023-05-24T00:50:26;101057.28;;;22.22;56.06
50250;BME280;36133;42.522;27.456;2023-05-24T00:52:52;101030.72;;;21.50;57.06
50250;BME280;36133;42.522;27.456;2023-05-24T00:55:18;101027.84;;;22.01;55.97
50250;BME280;36133;42.522;27.456;2023-05-24T00:57:44;101011.94;;;21.81;55.51
50250;BME280;36133;42.522;27.456;2023-05-24T01:00:10;100971.06;;;21.46;55.97
50250;BME280;36133;42.522;27.456;2023-05-24T01:02:35;101001.16;;;21.79;55.69
50250;BME280;36133;42.522;27.456;2023-05-24T01:05:02;100992.69;;;21.81;55.73
50250;BME280;36133;42.522;27.456;2023-05-24T01:07:49;101046.22;;;21.78;56.46
50250;BME280;36133;42.522;27.456;2023-05-24T01:10:34;101049.94;;;22.06;56.13
50250;BME280;36133;42.522;27.456;2023-05-24T01:15:48;101008.75;;;21.00;57.33
50250;BME280;36133;42.522;27.456;2023-05-24T01:18:19;100972.84;;;20.85;57.70
50250;BME280;36133;42.522;27.456;2023-05-24T01:23:50;101042.13;;;21.59;56.74
50250;BME280;36133;42.522;27.456;2023-05-24T01:26:31;101057.38;;;21.88;56.60
50250;BME280;36133;42.522;27.456;2023-05-24T01:29:01;100836.31;;;20.75;56.21
50250;BME280;36133;42.522;27.456;2023-05-24T01:31:27;101045.06;;;22.35;56.06
50250;BME280;36133;42.522;27.456;2023-05-24T01:33:53;100855.44;;;21.25;55.65
50250;BME280;36133;42.522;27.456;2023-05-24T01:36:18;100809.81;;;20.47;56.56
50250;BME280;36133;42.522;27.456;2023-05-24T01:38:49;101047.19;;;22.06;57.08
50250;BME280;36133;42.522;27.456;2023-05-24T01:44:12;101040.97;;;21.77;56.72
50250;BME280;36133;42.522;27.456;2023-05-24T01:46:40;101052.94;;;21.15;58.19
50250;BME280;36133;42.522;27.456;2023-05-24T01:49:18;101021.41;;;21.01;58.97
50250;BME280;36133;42.522;27.456;2023-05-24T01:52:07;101014.28;;;20.71;59.46
50250;BME280;36133;42.522;27.456;2023-05-24T01:54:37;100986.19;;;20.07;60.37
50250;BME280;36133;42.522;27.456;2023-05-24T01:57:06;101047.72;;;20.68;61.03
50250;BME280;36133;42.522;27.456;2023-05-24T01:59:32;100910.66;;;20.28;59.86
50250;BME280;36133;42.522;27.456;2023-05-24T02:01:58;101043.41;;;21.34;58.98
50250;BME280;36133;42.522;27.456;2023-05-24T02:04:24;101031.38;;;21.57;57.55
50250;BME280;36133;42.522;27.456;2023-05-24T02:06:50;101020.09;;;21.37;58.40
50250;BME280;36133;42.522;27.456;2023-05-24T02:09:15;101039.69;;;19.98;60.73
50250;BME280;36133;42.522;27.456;2023-05-24T02:11:41;100876.75;;;19.60;59.65
50250;BME280;36133;42.522;27.456;2023-05-24T02:14:06;101030.66;;;20.38;60.14
50250;BME280;36133;42.522;27.456;2023-05-24T02:16:32;101049.59;;;20.39;60.06
50250;BME280;36133;42.522;27.456;2023-05-24T02:18:57;101048.75;;;19.99;60.79
50250;BME280;36133;42.522;27.456;2023-05-24T02:21:23;101058.25;;;20.19;59.60
50250;BME280;36133;42.522;27.456;2023-05-24T02:23:52;101055.53;;;19.26;62.62
50250;BME280;36133;42.522;27.456;2023-05-24T02:26:17;101022.69;;;19.38;62.16
50250;BME280;36133;42.522;27.456;2023-05-24T02:28:43;100911.81;;;19.12;60.37
50250;BME280;36133;42.522;27.456;2023-05-24T02:31:09;100844.13;;;19.47;58.16
50250;BME280;36133;42.522;27.456;2023-05-24T02:33:35;101057.03;;;19.75;60.35
50250;BME280;36133;42.522;27.456;2023-05-24T02:36:01;101002.47;;;20.26;59.17
50250;BME280;36133;42.522;27.456;2023-05-24T02:38:26;101071.50;;;20.63;59.21
50250;BME280;36133;42.522;27.456;2023-05-24T02:40:52;101019.16;;;20.98;57.08
50250;BME280;36133;42.522;27.456;2023-05-24T02:43:17;101008.44;;;19.47;59.75
50250;BME280;36133;42.522;27.456;2023-05-24T02:45:43;100793.97;;;17.60;62.14
50250;BME280;36133;42.522;27.456;2023-05-24T02:48:08;101010.31;;;19.12;62.04
50250;BME280;36133;42.522;27.456;2023-05-24T02:50:34;101070.88;;;20.20;59.93
50250;BME280;36133;42.522;27.456;2023-05-24T02:53:01;100910.72;;;18.89;60.15
50250;BME280;36133;42.522;27.456;2023-05-24T02:55:26;101015.81;;;19.47;60.25
50250;BME280;36133;42.522;27.456;2023-05-24T02:57:53;101082.75;;;20.38;59.35
50250;BME280;36133;42.522;27.456;2023-05-24T03:00:19;101094.91;;;20.54;59.06
50250;BME280;36133;42.522;27.456;2023-05-24T03:02:44;100845.44;;;19.05;59.00
50250;BME280;36133;42.522;27.456;2023-05-24T03:05:15;101026.78;;;19.58;61.08
50250;BME280;36133;42.522;27.456;2023-05-24T03:07:42;100841.94;;;17.85;61.96
50250;BME280;36133;42.522;27.456;2023-05-24T03:10:08;101053.31;;;19.46;61.18
50250;BME280;36133;42.522;27.456;2023-05-24T03:12:37;101101.41;;;19.30;62.98
50250;BME280;36133;42.522;27.456;2023-05-24T03:15:03;100900.84;;;17.81;63.78
50250;BME280;36133;42.522;27.456;2023-05-24T03:17:29;100929.28;;;18.87;61.41
50250;BME280;36133;42.522;27.456;2023-05-24T03:19:54;100863.19;;;18.25;62.44
50250;BME280;36133;42.522;27.456;2023-05-24T03:22:20;100906.94;;;19.02;60.71
50250;BME280;36133;42.522;27.456;2023-05-24T03:24:45;100931.56;;;18.90;60.85
50250;BME280;36133;42.522;27.456;2023-05-24T03:27:11;101025.59;;;19.78;61.44
50250;BME280;36133;42.522;27.456;2023-05-24T03:29:36;101090.06;;;20.20;60.98
50250;BME280;36133;42.522;27.456;2023-05-24T03:32:02;101099.72;;;20.92;59.63
50250;BME280;36133;42.522;27.456;2023-05-24T03:34:28;101056.38;;;19.97;61.57
50250;BME280;36133;42.522;27.456;2023-05-24T03:36:57;100833.47;;;19.34;59.71
50250;BME280;36133;42.522;27.456;2023-05-24T03:39:25;101095.69;;;21.11;58.51
50250;BME280;36133;42.522;27.456;2023-05-24T03:41:50;101082.94;;;20.88;58.68
50250;BME280;36133;42.522;27.456;2023-05-24T03:44:16;101111.94;;;19.57;61.33
50250;BME280;36133;42.522;27.456;2023-05-24T03:46:44;101103.09;;;20.02;61.27
50250;BME280;36133;42.522;27.456;2023-05-24T03:49:09;101044.84;;;19.36;62.04
50250;BME280;36133;42.522;27.456;2023-05-24T03:51:35;100977.06;;;20.92;57.37
50250;BME280;36133;42.522;27.456;2023-05-24T03:54:01;101095.00;;;21.04;59.32
50250;BME280;36133;42.522;27.456;2023-05-24T03:56:26;101091.31;;;21.60;58.52
50250;BME280;36133;42.522;27.456;2023-05-24T03:58:52;100963.25;;;21.04;57.25
50250;BME280;36133;42.522;27.456;2023-05-24T04:01:19;101095.13;;;22.59;55.90
50250;BME280;36133;42.522;27.456;2023-05-24T04:03:45;101074.25;;;22.85;54.72
50250;BME280;36133;42.522;27.456;2023-05-24T04:06:11;101093.56;;;23.91;53.37
50250;BME280;36133;42.522;27.456;2023-05-24T04:08:37;101039.88;;;23.24;53.99
50250;BME280;36133;42.522;27.456;2023-05-24T04:11:03;101108.59;;;24.20;52.29
50250;BME280;36133;42.522;27.456;2023-05-24T04:13:28;101116.59;;;23.70;53.39
50250;BME280;36133;42.522;27.456;2023-05-24T04:15:54;101092.00;;;22.77;53.88
50250;BME280;36133;42.522;27.456;2023-05-24T04:18:20;101009.94;;;21.38;55.71
50250;BME280;36133;42.522;27.456;2023-05-24T04:20:45;100951.34;;;21.15;56.10
50250;BME280;36133;42.522;27.456;2023-05-24T04:23:11;101109.97;;;22.14;55.57
50250;BME280;36133;42.522;27.456;2023-05-24T04:25:37;101096.00;;;21.99;56.74
50250;BME280;36133;42.522;27.456;2023-05-24T04:28:02;101043.78;;;22.20;54.53
50250;BME280;36133;42.522;27.456;2023-05-24T04:30:28;101089.13;;;21.12;58.93
50250;BME280;36133;42.522;27.456;2023-05-24T04:32:55;100871.59;;;19.76;58.95
50250;BME280;36133;42.522;27.456;2023-05-24T04:35:22;100880.69;;;19.53;59.90
50250;BME280;36133;42.522;27.456;2023-05-24T04:37:48;100725.53;;;19.30;58.23
50250;BME280;36133;42.522;27.456;2023-05-24T04:40:14;100661.19;;;19.44;56.83
50250;BME280;36133;42.522;27.456;2023-05-24T04:42:41;101118.44;;;22.29;56.21
50250;BME280;36133;42.522;27.456;2023-05-24T04:45:07;101115.47;;;20.96;59.53
50250;BME280;36133;42.522;27.456;2023-05-24T04:47:32;101083.84;;;21.94;56.30
50250;BME280;36133;42.522;27.456;2023-05-24T04:49:58;100890.41;;;20.46;55.99
50250;BME280;36133;42.522;27.456;2023-05-24T04:52:24;100787.22;;;20.23;55.15
50250;BME280;36133;42.522;27.456;2023-05-24T04:54:50;101123.72;;;22.79;54.24
50250;BME280;36133;42.522;27.456;2023-05-24T04:57:16;100959.19;;;21.62;54.89
50250;BME280;36133;42.522;27.456;2023-05-24T04:59:42;101093.47;;;23.12;53.12
50250;BME280;36133;42.522;27.456;2023-05-24T05:02:08;100766.25;;;22.09;50.73
50250;BME280;36133;42.522;27.456;2023-05-24T05:04:33;101042.72;;;23.34;51.55
50250;BME280;36133;42.522;27.456;2023-05-24T05:06:59;100850.16;;;21.24;53.14
50250;BME280;36133;42.522;27.456;2023-05-24T05:09:24;100691.59;;;20.27;53.26
50250;BME280;36133;42.522;27.456;2023-05-24T05:11:50;101099.03;;;21.63;55.97
50250;BME280;36133;42.522;27.456;2023-05-24T05:14:15;100949.38;;;22.69;51.83
50250;BME280;36133;42.522;27.456;2023-05-24T05:16:41;100933.69;;;23.01;50.73
50250;BME280;36133;42.522;27.456;2023-05-24T05:19:07;101126.41;;;24.45;49.84
50250;BME280;36133;42.522;27.456;2023-05-24T05:21:36;101106.78;;;23.52;51.95
50250;BME280;36133;42.522;27.456;2023-05-24T05:24:06;101052.97;;;24.34;49.46
50250;BME280;36133;42.522;27.456;2023-05-24T05:26:32;100915.84;;;24.54;47.54
50250;BME280;36133;42.522;27.456;2023-05-24T05:29:01;100867.75;;;22.47;50.06
50250;BME280;36133;42.522;27.456;2023-05-24T05:31:28;100921.66;;;22.43;51.04
50250;BME280;36133;42.522;27.456;2023-05-24T05:33:54;100958.78;;;22.73;50.37
50250;BME280;36133;42.522;27.456;2023-05-24T05:36:19;101128.81;;;24.31;49.82
50250;BME280;36133;42.522;27.456;2023-05-24T05:38:45;101129.34;;;24.23;50.16
50250;BME280;36133;42.522;27.456;2023-05-24T05:41:10;100932.59;;;24.02;47.95
50250;BME280;36133;42.522;27.456;2023-05-24T05:43:37;101057.47;;;23.97;48.70
50250;BME280;36133;42.522;27.456;2023-05-24T05:46:03;101085.56;;;23.52;50.62
50250;BME280;36133;42.522;27.456;2023-05-24T05:48:28;100898.75;;;24.37;46.71
50250;BME280;36133;42.522;27.456;2023-05-24T05:50:54;101106.88;;;28.15;41.62
50250;BME280;36133;42.522;27.456;2023-05-24T05:53:19;101114.56;;;28.47;40.43
50250;BME280;36133;42.522;27.456;2023-05-24T05:55:45;101042.34;;;27.52;40.98
50250;BME280;36133;42.522;27.456;2023-05-24T05:58:11;101108.63;;;29.94;38.50
50250;BME280;36133;42.522;27.456;2023-05-24T06:00:37;101107.25;;;29.78;38.06
50250;BME280;36133;42.522;27.456;2023-05-24T06:03:03;101042.81;;;30.53;36.52
50250;BME280;36133;42.522;27.456;2023-05-24T06:05:28;100815.59;;;28.56;36.72
50250;BME280;36133;42.522;27.456;2023-05-24T06:07:54;100917.38;;;30.45;34.86
50250;BME280;36133;42.522;27.456;2023-05-24T06:10:19;101123.22;;;29.72;37.39
50250;BME280;36133;42.522;27.456;2023-05-24T06:12:48;101142.16;;;29.19;38.73
50250;BME280;36133;42.522;27.456;2023-05-24T06:15:14;100849.25;;;26.60;40.14
50250;BME280;36133;42.522;27.456;2023-05-24T06:17:39;101047.28;;;30.77;35.73
50250;BME280;36133;42.522;27.456;2023-05-24T06:20:10;101155.91;;;28.92;39.03
50250;BME280;36133;42.522;27.456;2023-05-24T06:22:42;101116.03;;;28.16;39.95
50250;BME280;36133;42.522;27.456;2023-05-24T06:25:09;101138.34;;;30.26;37.38
50250;BME280;36133;42.522;27.456;2023-05-24T06:27:41;100978.91;;;30.71;34.94
50250;BME280;36133;42.522;27.456;2023-05-24T06:30:07;101036.88;;;30.32;35.03
50250;BME280;36133;42.522;27.456;2023-05-24T06:32:36;100974.63;;;29.60;35.83
50250;BME280;36133;42.522;27.456;2023-05-24T06:35:05;101149.56;;;30.90;35.48
50250;BME280;36133;42.522;27.456;2023-05-24T06:37:34;101092.03;;;30.44;35.21
50250;BME280;36133;42.522;27.456;2023-05-24T06:40:00;101000.25;;;28.40;37.62
50250;BME280;36133;42.522;27.456;2023-05-24T06:42:25;100755.66;;;25.99;39.55
50250;BME280;36133;42.522;27.456;2023-05-24T06:44:51;100979.00;;;27.40;39.85
50250;BME280;36133;42.522;27.456;2023-05-24T06:47:17;100991.00;;;26.96;39.99
50250;BME280;36133;42.522;27.456;2023-05-24T06:49:44;100996.69;;;26.76;41.99
50250;BME280;36133;42.522;27.456;2023-05-24T06:52:10;100923.03;;;26.41;41.76
50250;BME280;36133;42.522;27.456;2023-05-24T06:54:38;100941.44;;;26.61;42.18
50250;BME280;36133;42.522;27.456;2023-05-24T06:57:04;100948.06;;;27.28;40.35
50250;BME280;36133;42.522;27.456;2023-05-24T06:59:29;101158.75;;;27.91;40.77
50250;BME280;36133;42.522;27.456;2023-05-24T07:01:58;100738.00;;;24.91;41.42
50250;BME280;36133;42.522;27.456;2023-05-24T07:04:23;100986.75;;;28.10;38.77
50250;BME280;36133;42.522;27.456;2023-05-24T07:06:50;100990.38;;;28.85;37.63
50250;BME280;36133;42.522;27.456;2023-05-24T07:09:18;100977.56;;;29.22;35.94
50250;BME280;36133;42.522;27.456;2023-05-24T07:11:44;100807.59;;;28.82;34.68
50250;BME280;36133;42.522;27.456;2023-05-24T07:14:10;101140.63;;;30.11;36.35
50250;BME280;36133;42.522;27.456;2023-05-24T07:16:42;100647.66;;;27.94;34.71
50250;BME280;36133;42.522;27.456;2023-05-24T07:19:07;100739.97;;;30.00;32.44
50250;BME280;36133;42.522;27.456;2023-05-24T07:21:33;100736.78;;;29.49;32.95
50250;BME280;36133;42.522;27.456;2023-05-24T07:23:59;101137.72;;;35.72;28.03
50250;BME280;36133;42.522;27.456;2023-05-24T07:26:51;100841.38;;;34.23;27.63
50250;BME280;36133;42.522;27.456;2023-05-24T07:29:43;100909.03;;;34.34;27.54
50250;BME280;36133;42.522;27.456;2023-05-24T07:32:08;100993.31;;;36.22;24.75
50250;BME280;36133;42.522;27.456;2023-05-24T07:34:34;101136.03;;;37.30;23.34
50250;BME280;36133;42.522;27.456;2023-05-24T07:37:03;100746.13;;;35.42;23.11
50250;BME280;36133;42.522;27.456;2023-05-24T07:39:31;100763.97;;;35.49;22.47
50250;BME280;36133;42.522;27.456;2023-05-24T07:41:57;101116.16;;;36.46;24.21
50250;BME280;36133;42.522;27.456;2023-05-24T07:44:23;101024.69;;;36.89;22.78
50250;BME280;36133;42.522;27.456;2023-05-24T07:46:52;101164.88;;;37.39;24.67
50250;BME280;36133;42.522;27.456;2023-05-24T07:49:18;101004.19;;;32.64;29.19
50250;BME280;36133;42.522;27.456;2023-05-24T07:51:51;100730.78;;;31.67;26.94
50250;BME280;36133;42.522;27.456;2023-05-24T07:54:31;100735.38;;;33.09;26.31
50250;BME280;36133;42.522;27.456;2023-05-24T07:56:57;101008.44;;;35.69;25.43
50250;BME280;36133;42.522;27.456;2023-05-24T07:59:23;101141.69;;;36.29;25.84
50250;BME280;36133;42.522;27.456;2023-05-24T08:01:55;101049.50;;;35.73;26.26
50250;BME280;36133;42.522;27.456;2023-05-24T08:04:26;101042.59;;;33.92;28.29
50250;BME280;36133;42.522;27.456;2023-05-24T08:07:10;100758.16;;;32.81;28.65
50250;BME280;36133;42.522;27.456;2023-05-24T08:09:40;100995.53;;;33.76;29.44
50250;BME280;36133;42.522;27.456;2023-05-24T08:12:06;100959.50;;;33.45;30.35
50250;BME280;36133;42.522;27.456;2023-05-24T08:14:35;101164.53;;;34.65;29.58
50250;BME280;36133;42.522;27.456;2023-05-24T08:17:03;100761.63;;;33.46;27.94
50250;BME280;36133;42.522;27.456;2023-05-24T08:19:29;100914.19;;;36.20;25.75
50250;BME280;36133;42.522;27.456;2023-05-24T08:22:00;101032.97;;;37.25;24.72
50250;BME280;36133;42.522;27.456;2023-05-24T08:24:53;101011.78;;;39.42;22.32
50250;BME280;36133;42.522;27.456;2023-05-24T08:27:19;100778.09;;;39.09;20.70
50250;BME280;36133;42.522;27.456;2023-05-24T08:29:49;100881.41;;;37.75;22.37
50250;BME280;36133;42.522;27.456;2023-05-24T08:32:20;100781.59;;;39.25;20.10
50250;BME280;36133;42.522;27.456;2023-05-24T08:34:53;100782.31;;;38.96;19.85
50250;BME280;36133;42.522;27.456;2023-05-24T08:37:20;100861.78;;;38.56;21.36
50250;BME280;36133;42.522;27.456;2023-05-24T08:39:50;101121.53;;;40.09;21.23
50250;BME280;36133;42.522;27.456;2023-05-24T08:42:16;100907.97;;;39.36;20.66
50250;BME280;36133;42.522;27.456;2023-05-24T08:45:11;101163.56;;;39.26;22.17
50250;BME280;36133;42.522;27.456;2023-05-24T08:48:01;101025.09;;;38.10;22.35
50250;BME280;36133;42.522;27.456;2023-05-24T08:50:33;100907.66;;;36.84;22.66
50250;BME280;36133;42.522;27.456;2023-05-24T08:52:59;100976.69;;;36.42;23.49
50250;BME280;36133;42.522;27.456;2023-05-24T08:55:28;100944.59;;;36.30;23.81
50250;BME280;36133;42.522;27.456;2023-05-24T08:57:54;101193.75;;;36.59;24.43
50250;BME280;36133;42.522;27.456;2023-05-24T09:00:21;101179.72;;;37.80;23.59
50250;BME280;36133;42.522;27.456;2023-05-24T09:02:57;100785.72;;;34.34;24.91
50250;BME280;36133;42.522;27.456;2023-05-24T09:05:29;100937.44;;;35.44;24.56
50250;BME280;36133;42.522;27.456;2023-05-24T09:07:55;101118.00;;;37.91;23.05
50250;BME280;36133;42.522;27.456;2023-05-24T09:10:27;101176.19;;;34.47;26.95
50250;BME280;36133;42.522;27.456;2023-05-24T09:13:04;101177.88;;;35.19;26.56
50250;BME280;36133;42.522;27.456;2023-05-24T09:15:35;100789.56;;;34.62;24.90
50250;BME280;36133;42.522;27.456;2023-05-24T09:18:01;100753.97;;;34.30;24.26
50250;BME280;36133;42.522;27.456;2023-05-24T09:20:29;100744.63;;;34.26;24.15
50250;BME280;36133;42.522;27.456;2023-05-24T09:23:07;101017.72;;;38.56;21.54
50250;BME280;36133;42.522;27.456;2023-05-24T09:25:35;100983.81;;;38.53;21.37
50250;BME280;36133;42.522;27.456;2023-05-24T09:28:07;101186.41;;;36.22;23.34
50250;BME280;36133;42.522;27.456;2023-05-24T09:30:34;101006.44;;;36.30;23.12
50250;BME280;36133;42.522;27.456;2023-05-24T09:33:00;101009.84;;;37.48;21.86
50250;BME280;36133;42.522;27.456;2023-05-24T09:35:26;100791.91;;;34.73;23.50
50250;BME280;36133;42.522;27.456;2023-05-24T09:38:02;100966.94;;;35.99;23.72
50250;BME280;36133;42.522;27.456;2023-05-24T09:40:28;100971.97;;;35.11;24.57
50250;BME280;36133;42.522;27.456;2023-05-24T09:43:08;100878.03;;;37.53;21.67
50250;BME280;36133;42.522;27.456;2023-05-24T09:45:46;101053.34;;;39.22;20.99
50250;BME280;36133;42.522;27.456;2023-05-24T09:48:30;100750.81;;;35.01;24.04
50250;BME280;36133;42.522;27.456;2023-05-24T09:50:58;100943.88;;;36.46;24.31
50250;BME280;36133;42.522;27.456;2023-05-24T09:53:25;100864.88;;;35.70;23.16
50250;BME280;36133;42.522;27.456;2023-05-24T09:55:53;100719.66;;;33.46;25.58
50250;BME280;36133;42.522;27.456;2023-05-24T09:58:31;100744.59;;;33.30;24.84
50250;BME280;36133;42.522;27.456;2023-05-24T10:01:21;100765.28;;;33.79;25.31
50250;BME280;36133;42.522;27.456;2023-05-24T10:03:58;101031.91;;;37.30;22.64
50250;BME280;36133;42.522;27.456;2023-05-24T10:06:27;100756.25;;;34.61;23.61
50250;BME280;36133;42.522;27.456;2023-05-24T10:08:57;101025.56;;;36.00;23.26
50250;BME280;36133;42.522;27.456;2023-05-24T10:11:24;101200.63;;;36.99;22.88
50250;BME280;36133;42.522;27.456;2023-05-24T10:13:52;101188.94;;;36.35;25.10
50250;BME280;36133;42.522;27.456;2023-05-24T10:16:34;100791.16;;;36.42;20.95
50250;BME280;36133;42.522;27.456;2023-05-24T10:19:10;100800.34;;;36.70;22.22
50250;BME280;36133;42.522;27.456;2023-05-24T10:21:41;100731.97;;;34.07;24.36
50250;BME280;36133;42.522;27.456;2023-05-24T10:24:08;100854.34;;;34.28;25.07
50250;BME280;36133;42.522;27.456;2023-05-24T10:26:41;100763.16;;;33.05;26.67
50250;BME280;36133;42.522;27.456;2023-05-24T10:29:11;100935.81;;;33.26;28.55
50250;BME280;36133;42.522;27.456;2023-05-24T10:31:41;101023.31;;;34.70;28.11
50250;BME280;36133;42.522;27.456;2023-05-24T10:34:14;101015.13;;;33.47;27.85
50250;BME280;36133;42.522;27.456;2023-05-24T10:36:40;101161.84;;;35.19;26.53
50250;BME280;36133;42.522;27.456;2023-05-24T10:39:09;100907.09;;;34.67;24.80
50250;BME280;36133;42.522;27.456;2023-05-24T10:41:45;100956.59;;;33.16;26.81
50250;BME280;36133;42.522;27.456;2023-05-24T10:44:11;101179.94;;;34.80;26.71
50250;BME280;36133;42.522;27.456;2023-05-24T10:47:09;101161.47;;;36.08;25.67
50250;BME280;36133;42.522;27.456;2023-05-24T10:49:35;101024.66;;;34.85;25.52
50250;BME280;36133;42.522;27.456;2023-05-24T10:52:11;100736.19;;;34.14;25.07
50250;BME280;36133;42.522;27.456;2023-05-24T10:54:38;101022.88;;;35.01;25.19
50250;BME280;36133;42.522;27.456;2023-05-24T10:57:05;100922.94;;;32.78;27.56
50250;BME280;36133;42.522;27.456;2023-05-24T10:59:35;100737.97;;;32.84;26.66
50250;BME280;36133;42.522;27.456;2023-05-24T11:02:08;100875.72;;;33.70;26.58
50250;BME280;36133;42.522;27.456;2023-05-24T11:04:51;101151.88;;;36.70;25.42
50250;BME280;36133;42.522;27.456;2023-05-24T11:07:17;100903.00;;;35.35;25.26
50250;BME280;36133;42.522;27.456;2023-05-24T11:09:48;101168.22;;;37.57;24.49
50250;BME280;36133;42.522;27.456;2023-05-24T11:12:32;101022.38;;;35.65;25.87
50250;BME280;36133;42.522;27.456;2023-05-24T11:15:03;100858.59;;;34.34;26.12
50250;BME280;36133;42.522;27.456;2023-05-24T11:17:28;100877.38;;;34.13;26.25
50250;BME280;36133;42.522;27.456;2023-05-24T11:19:57;101170.09;;;36.36;25.72
50250;BME280;36133;42.522;27.456;2023-05-24T11:22:38;101145.59;;;36.49;26.10
50250;BME280;36133;42.522;27.456;2023-05-24T11:25:25;100890.88;;;35.67;24.09
50250;BME280;36133;42.522;27.456;2023-05-24T11:27:51;100948.41;;;39.40;20.89
50250;BME280;36133;42.522;27.456;2023-05-24T11:30:20;100706.31;;;36.83;22.00
50250;BME280;36133;42.522;27.456;2023-05-24T11:32:50;101136.66;;;36.83;24.13
50250;BME280;36133;42.522;27.456;2023-05-24T11:35:18;100740.06;;;33.46;25.65
50250;BME280;36133;42.522;27.456;2023-05-24T11:37:50;100665.88;;;33.61;24.96
50250;BME280;36133;42.522;27.456;2023-05-24T11:40:18;100920.63;;;34.24;26.18
50250;BME280;36133;42.522;27.456;2023-05-24T11:42:45;100856.53;;;32.66;27.54
50250;BME280;36133;42.522;27.456;2023-05-24T11:45:14;100991.41;;;34.42;26.41
50250;BME280;36133;42.522;27.456;2023-05-24T11:47:45;101145.72;;;35.82;25.95
50250;BME280;36133;42.522;27.456;2023-05-24T11:50:22;101001.19;;;34.27;26.87
50250;BME280;36133;42.522;27.456;2023-05-24T11:52:48;100701.25;;;31.84;27.10
50250;BME280;36133;42.522;27.456;2023-05-24T11:55:13;101141.84;;;36.45;25.94
50250;BME280;36133;42.522;27.456;2023-05-24T11:57:45;100706.63;;;34.49;25.05
50250;BME280;36133;42.522;27.456;2023-05-24T12:00:23;100674.22;;;32.22;26.81
50250;BME280;36133;42.522;27.456;2023-05-24T12:02:55;100754.41;;;33.15;26.57
50250;BME280;36133;42.522;27.456;2023-05-24T12:05:23;100959.25;;;35.14;25.50
50250;BME280;36133;42.522;27.456;2023-05-24T12:08:06;100874.66;;;34.79;25.54
50250;BME280;36133;42.522;27.456;2023-05-24T12:10:39;100850.13;;;35.86;23.86
50250;BME280;36133;42.522;27.456;2023-05-24T12:13:18;100811.06;;;36.49;23.42
50250;BME280;36133;42.522;27.456;2023-05-24T12:15:55;100957.03;;;37.13;23.25
50250;BME280;36133;42.522;27.456;2023-05-24T12:18:23;101103.19;;;38.25;23.25
50250;BME280;36133;42.522;27.456;2023-05-24T12:20:51;100963.50;;;35.81;24.39
50250;BME280;36133;42.522;27.456;2023-05-24T12:23:23;101094.19;;;38.20;23.26
50250;BME280;36133;42.522;27.456;2023-05-24T12:25:49;100861.75;;;35.47;23.91
50250;BME280;36133;42.522;27.456;2023-05-24T12:28:20;100772.84;;;34.21;24.94
50250;BME280;36133;42.522;27.456;2023-05-24T12:30:48;100652.78;;;32.82;26.03
50250;BME280;36133;42.522;27.456;2023-05-24T12:33:16;100939.06;;;34.87;25.84
50250;BME280;36133;42.522;27.456;2023-05-24T12:35:42;101087.47;;;36.53;25.17
50250;BME280;36133;42.522;27.456;2023-05-24T12:38:17;100947.75;;;36.41;24.39
50250;BME280;36133;42.522;27.456;2023-05-24T12:40:55;101071.78;;;38.97;22.56
50250;BME280;36133;42.522;27.456;2023-05-24T12:43:21;100644.75;;;34.54;23.62
50250;BME280;36133;42.522;27.456;2023-05-24T12:45:47;101089.84;;;35.23;26.67
50250;BME280;36133;42.522;27.456;2023-05-24T12:48:15;100689.78;;;32.49;27.35
50250;BME280;36133;42.522;27.456;2023-05-24T12:50:41;100689.00;;;33.08;26.20
50250;BME280;36133;42.522;27.456;2023-05-24T12:53:07;100683.81;;;33.39;26.20
50250;BME280;36133;42.522;27.456;2023-05-24T12:55:32;100777.19;;;33.76;26.03
50250;BME280;36133;42.522;27.456;2023-05-24T12:57:58;100685.28;;;34.12;25.20